Aviation Digital Data Service (ADDS)

Output produced by METARs form (0757 UTC 14 December 2017)
found at http://aviationweather.gov/adds/metars/
 
KRIC 140533Z 1406/1506 19014G23KT P6SM BKN100 
     FM141300 24013G21KT P6SM SCT250 
     FM141500 28012G20KT P6SM SKC 
     FM142000 32008KT P6SM SCT200